createdAt,value
2022-11-03T00:06:05.413Z,82.72
2022-11-03T00:08:38.065Z,81.98
2022-11-03T00:11:14.058Z,80.98
2022-11-03T00:13:43.621Z,80.81
2022-11-03T00:16:12.863Z,80.47
2022-11-03T00:18:40.359Z,80.21
2022-11-03T00:21:12.750Z,80.81
2022-11-03T00:23:42.359Z,81.97
2022-11-03T00:26:22.945Z,83.62
2022-11-03T00:28:52.222Z,83.62
2022-11-03T00:31:23.420Z,83.20
2022-11-03T00:33:50.746Z,81.84
2022-11-03T00:36:23.316Z,81.32
2022-11-03T00:38:51.134Z,81.07
2022-11-03T00:41:21.018Z,82.20
2022-11-03T00:43:49.907Z,82.57
2022-11-03T00:46:17.552Z,82.83
2022-11-03T00:48:44.612Z,83.48
2022-11-03T00:51:22.214Z,83.71
2022-11-03T00:53:53.144Z,83.42
2022-11-03T00:56:27.353Z,85.32
2022-11-03T00:58:55.629Z,85.85
2022-11-03T01:01:24.983Z,83.87
2022-11-03T01:04:13.179Z,84.91
2022-11-03T01:06:52.181Z,86.46
2022-11-03T01:09:36.344Z,87.09
2022-11-03T01:12:18.352Z,87.56
2022-11-03T01:14:50.714Z,86.73
2022-11-03T01:17:28.691Z,86.88
2022-11-03T01:19:56.170Z,86.11
2022-11-03T01:22:24.405Z,85.70
2022-11-03T01:28:40.054Z,86.08
2022-11-03T01:31:09.557Z,86.31
2022-11-03T01:33:36.587Z,86.92
2022-11-03T01:36:04.174Z,86.95
2022-11-03T01:38:35.706Z,86.42
2022-11-03T01:41:04.419Z,85.94
2022-11-03T01:43:34.716Z,86.31
2022-11-03T01:46:19.186Z,86.89
2022-11-03T01:52:47.375Z,85.56
2022-11-03T01:55:18.109Z,85.26
2022-11-03T01:57:58.673Z,84.56
2022-11-03T02:00:25.730Z,84.88
2022-11-03T02:02:52.989Z,85.12
2022-11-03T02:05:23.856Z,85.22
2022-11-03T02:08:06.317Z,84.99
2022-11-03T02:10:53.447Z,84.47
2022-11-03T02:17:28.600Z,83.41
2022-11-03T02:20:16.244Z,83.39
2022-11-03T02:23:44.821Z,83.71
2022-11-03T02:26:32.011Z,84.54
2022-11-03T02:29:19.061Z,84.65
2022-11-03T02:32:04.613Z,84.39
2022-11-03T02:35:01.159Z,83.99
2022-11-03T02:37:32.636Z,83.57
2022-11-03T02:40:08.772Z,83.92
2022-11-03T02:42:38.173Z,83.44
2022-11-03T02:45:13.307Z,83.78
2022-11-03T02:47:43.956Z,83.68
2022-11-03T02:50:11.292Z,83.52
2022-11-03T02:52:42.913Z,83.86
2022-11-03T02:55:33.781Z,84.42
2022-11-03T02:58:08.273Z,84.89
2022-11-03T03:00:53.106Z,86.29
2022-11-03T03:03:30.222Z,86.57
2022-11-03T03:06:05.556Z,86.09
2022-11-03T03:08:35.269Z,85.91
2022-11-03T03:11:05.358Z,86.20
2022-11-03T03:13:33.258Z,86.04
2022-11-03T03:16:17.200Z,86.04
2022-11-03T03:18:50.333Z,85.86
2022-11-03T03:21:28.592Z,85.56
2022-11-03T03:24:20.689Z,85.12
2022-11-03T03:26:50.305Z,85.14
2022-11-03T03:29:29.212Z,85.10
2022-11-03T03:32:00.208Z,85.94
2022-11-03T03:34:35.074Z,86.50
2022-11-03T03:37:03.860Z,86.04
2022-11-03T03:39:36.525Z,85.99
2022-11-03T03:42:05.778Z,85.99
2022-11-03T03:44:34.272Z,86.44
2022-11-03T03:47:08.000Z,86.76
2022-11-03T03:49:34.915Z,86.98
2022-11-03T03:52:03.999Z,86.93
2022-11-03T03:54:31.005Z,86.56
2022-11-03T03:57:03.437Z,85.77
2022-11-03T03:59:30.944Z,86.38
2022-11-03T04:01:58.690Z,86.43
2022-11-03T04:04:25.900Z,86.97
2022-11-03T04:07:12.870Z,86.82
2022-11-03T04:09:39.769Z,86.87
2022-11-03T04:12:27.597Z,86.61
2022-11-03T04:15:13.235Z,86.18
2022-11-03T04:18:05.076Z,86.02
2022-11-03T04:20:51.241Z,85.14
2022-11-03T04:23:18.858Z,84.56
2022-11-03T04:25:52.547Z,84.47
2022-11-03T04:28:19.611Z,84.61
2022-11-03T04:30:46.848Z,84.22
2022-11-03T04:33:20.051Z,85.08
2022-11-03T04:35:48.310Z,85.78
2022-11-03T04:38:15.165Z,85.47
2022-11-03T04:40:49.156Z,85.60
2022-11-03T04:43:21.649Z,86.19
2022-11-03T04:45:50.025Z,86.74
2022-11-03T04:48:19.830Z,85.47
2022-11-03T04:50:49.426Z,85.42
2022-11-03T04:53:20.886Z,85.63
2022-11-03T04:55:51.611Z,85.20
2022-11-03T04:58:24.311Z,85.01
2022-11-03T05:00:57.548Z,85.74
2022-11-03T05:03:36.433Z,85.93
2022-11-03T05:06:30.402Z,87.79
2022-11-03T05:09:02.294Z,89.28
2022-11-03T05:11:29.203Z,88.71
2022-11-03T05:14:01.137Z,88.48
2022-11-03T05:16:29.445Z,88.42
2022-11-03T05:18:57.174Z,88.62
2022-11-03T05:21:27.432Z,89.04
2022-11-03T05:23:58.669Z,89.05
2022-11-03T05:26:31.358Z,88.53
2022-11-03T05:29:41.105Z,88.31
2022-11-03T05:32:16.957Z,88.33
2022-11-03T05:34:47.162Z,88.51
2022-11-03T05:37:33.090Z,87.56
2022-11-03T05:40:15.087Z,87.30
2022-11-03T05:42:45.498Z,87.65
2022-11-03T05:45:35.584Z,88.13
2022-11-03T05:48:06.922Z,88.23
2022-11-03T05:50:36.018Z,88.64
2022-11-03T05:53:05.732Z,89.64
2022-11-03T05:55:36.181Z,89.56
2022-11-03T05:58:22.115Z,89.17
2022-11-03T06:00:49.213Z,89.10
2022-11-03T06:03:29.863Z,88.73
2022-11-03T06:05:58.846Z,87.06
2022-11-03T06:08:38.941Z,87.44
2022-11-03T06:11:16.604Z,87.35
2022-11-03T06:13:43.748Z,86.95
2022-11-03T06:16:16.832Z,86.68
2022-11-03T06:18:43.885Z,86.27
2022-11-03T06:21:19.632Z,85.00
2022-11-03T06:23:46.784Z,84.19
2022-11-03T06:26:19.707Z,84.32
2022-11-03T06:28:48.557Z,84.39
2022-11-03T06:31:39.360Z,84.51
2022-11-03T06:34:17.981Z,84.90
2022-11-03T06:36:45.027Z,84.52
2022-11-03T06:39:24.259Z,84.44
2022-11-03T06:41:52.212Z,85.50
2022-11-03T06:44:26.241Z,85.38
2022-11-03T06:47:00.455Z,85.12
2022-11-03T06:49:35.000Z,84.89
2022-11-03T06:52:26.201Z,85.75
2022-11-03T06:55:16.735Z,85.78
2022-11-03T06:57:48.136Z,86.06
2022-11-03T07:00:35.537Z,85.66
2022-11-03T07:03:07.462Z,86.03
2022-11-03T07:05:35.252Z,85.84
2022-11-03T07:08:27.635Z,86.27
2022-11-03T07:11:05.423Z,86.49
2022-11-03T07:13:34.939Z,86.54
2022-11-03T07:16:02.506Z,86.75
2022-11-03T07:18:35.787Z,86.52
2022-11-03T07:21:14.320Z,86.67
2022-11-03T07:23:44.660Z,86.27
2022-11-03T07:26:14.101Z,86.40
2022-11-03T07:28:41.224Z,86.30
2022-11-03T07:31:17.123Z,85.80
2022-11-03T07:33:44.242Z,85.58
2022-11-03T07:36:18.540Z,85.64
2022-11-03T07:38:48.494Z,86.30
2022-11-03T07:41:28.121Z,85.68
2022-11-03T07:44:00.014Z,85.09
2022-11-03T07:46:27.663Z,84.76
2022-11-03T07:48:59.838Z,85.13
2022-11-03T07:51:30.056Z,84.44
2022-11-03T07:54:10.522Z,85.42
2022-11-03T07:56:46.117Z,85.47
2022-11-03T07:59:20.653Z,85.12
2022-11-03T08:01:54.227Z,84.74
2022-11-03T08:04:39.746Z,83.90
2022-11-03T08:07:06.668Z,84.15
2022-11-03T08:09:33.640Z,84.03
2022-11-03T08:12:01.094Z,83.75
2022-11-03T08:14:28.161Z,82.80
2022-11-03T08:16:55.087Z,83.09
2022-11-03T08:19:21.965Z,83.77
2022-11-03T08:21:48.940Z,84.47
2022-11-03T08:24:16.228Z,82.27
2022-11-03T08:26:43.115Z,82.00
2022-11-03T08:29:10.365Z,79.66
2022-11-03T08:31:37.270Z,80.03
2022-11-03T08:34:04.132Z,78.56
2022-11-03T08:36:31.178Z,77.26
2022-11-03T08:38:58.117Z,77.35
2022-11-03T08:41:25.034Z,77.60
2022-11-03T08:43:51.949Z,77.42
2022-11-03T08:46:18.934Z,76.73
2022-11-03T08:48:46.598Z,76.54
2022-11-03T08:51:15.194Z,77.12
2022-11-03T08:53:43.207Z,75.77
2022-11-03T08:56:12.993Z,75.87
2022-11-03T08:58:44.958Z,74.34
2022-11-03T09:01:12.582Z,74.02
2022-11-03T09:03:40.234Z,72.81
2022-11-03T09:06:08.274Z,73.30
2022-11-03T09:11:22.209Z,73.95
2022-11-03T09:13:49.078Z,70.80
2022-11-03T09:16:16.299Z,69.13
2022-11-03T09:18:43.207Z,70.64
2022-11-03T09:21:10.154Z,69.76
2022-11-03T09:23:37.074Z,68.64
2022-11-03T09:26:06.059Z,66.01
2022-11-03T09:28:33.306Z,66.66
2022-11-03T09:31:00.305Z,63.14
2022-11-03T09:33:27.507Z,63.84
2022-11-03T09:35:54.425Z,63.28
2022-11-03T09:38:21.394Z,62.17
2022-11-03T09:43:20.745Z,62.54
2022-11-03T09:45:47.899Z,62.40
2022-11-03T09:48:15.450Z,60.91
2022-11-03T09:50:43.241Z,60.20
2022-11-03T09:53:12.638Z,57.76
2022-11-03T09:55:40.398Z,57.70
2022-11-03T09:58:16.369Z,57.62
2022-11-03T10:00:44.432Z,57.47
2022-11-03T10:03:13.802Z,57.24
2022-11-03T10:05:42.470Z,56.36
2022-11-03T10:08:33.333Z,54.22
2022-11-03T10:11:02.495Z,54.26
2022-11-03T10:13:40.196Z,55.69
2022-11-03T10:16:12.901Z,52.65
2022-11-03T10:18:40.102Z,51.94
2022-11-03T10:21:14.836Z,53.15
2022-11-03T10:23:41.702Z,53.75
2022-11-03T10:26:11.302Z,52.00
2022-11-03T10:28:38.658Z,51.23
2022-11-03T10:31:13.307Z,51.45
2022-11-03T10:34:01.027Z,51.42
2022-11-03T10:36:30.197Z,52.11
2022-11-03T10:38:58.193Z,50.51
2022-11-03T10:41:34.660Z,51.56
2022-11-03T10:44:16.865Z,51.51
2022-11-03T10:47:00.612Z,51.13
2022-11-03T10:49:33.310Z,49.93
2022-11-03T10:52:19.801Z,50.14
2022-11-03T10:54:48.141Z,50.91
2022-11-03T10:57:16.940Z,50.54
2022-11-03T10:59:46.148Z,52.11
2022-11-03T11:02:20.512Z,50.33
2022-11-03T11:04:59.404Z,50.29
2022-11-03T11:07:33.292Z,50.34
2022-11-03T11:10:18.282Z,50.99
2022-11-03T11:13:18.010Z,49.79
2022-11-03T11:16:00.817Z,51.03
2022-11-03T11:18:30.816Z,50.90
2022-11-03T11:20:58.625Z,50.42
2022-11-03T11:23:28.923Z,49.98
2022-11-03T11:26:11.169Z,50.58
2022-11-03T11:28:43.470Z,48.97
2022-11-03T11:31:30.676Z,47.54
2022-11-03T11:34:10.224Z,48.06
2022-11-03T11:36:39.281Z,47.83
2022-11-03T11:39:11.577Z,47.47
2022-11-03T11:42:07.496Z,47.24
2022-11-03T11:44:40.365Z,46.08
2022-11-03T11:47:28.251Z,48.05
2022-11-03T11:50:12.656Z,47.38
2022-11-03T11:52:46.491Z,48.38
2022-11-03T11:55:25.315Z,47.60
2022-11-03T11:57:53.856Z,49.60
2022-11-03T12:00:26.290Z,46.23
2022-11-03T12:02:54.346Z,44.37
2022-11-03T12:05:26.289Z,44.94
2022-11-03T12:07:53.214Z,45.07
2022-11-03T12:10:23.536Z,43.15
2022-11-03T12:12:50.803Z,44.05
2022-11-03T12:15:55.381Z,42.61
2022-11-03T12:18:39.177Z,43.18
2022-11-03T12:21:15.722Z,42.81
2022-11-03T12:23:45.349Z,43.00
2022-11-03T12:26:41.028Z,44.44
2022-11-03T12:29:08.329Z,44.62
2022-11-03T12:31:37.010Z,45.43
2022-11-03T12:34:04.124Z,43.87
2022-11-03T12:36:31.050Z,43.46
2022-11-03T12:38:57.926Z,44.77
2022-11-03T12:41:25.017Z,42.56
2022-11-03T12:43:53.524Z,42.87
2022-11-03T12:46:21.714Z,41.91
2022-11-03T12:48:49.414Z,41.36
2022-11-03T12:51:18.493Z,40.98
2022-11-03T12:53:46.030Z,40.69
2022-11-03T12:56:14.600Z,40.44
2022-11-03T12:58:41.652Z,42.74
2022-11-03T13:01:09.347Z,43.48
2022-11-03T13:03:37.108Z,44.04
2022-11-03T13:06:05.767Z,44.46
2022-11-03T13:08:32.766Z,43.18
2022-11-03T13:11:00.098Z,43.54
2022-11-03T13:13:27.297Z,44.01
2022-11-03T13:15:54.594Z,44.84
2022-11-03T13:18:22.674Z,46.00
2022-11-03T13:20:49.595Z,45.93
2022-11-03T13:23:18.923Z,45.82
2022-11-03T13:25:49.070Z,45.74
2022-11-03T13:28:16.033Z,46.60
2022-11-03T13:30:42.998Z,46.31
2022-11-03T13:33:10.175Z,46.91
2022-11-03T13:35:37.506Z,48.82
2022-11-03T13:38:04.440Z,49.74
2022-11-03T13:43:18.522Z,50.84
2022-11-03T13:45:45.557Z,50.51
2022-11-03T13:51:00.526Z,51.30
2022-11-03T13:56:20.708Z,52.87
2022-11-03T14:01:36.845Z,53.31
2022-11-03T14:06:51.101Z,53.67
2022-11-03T14:09:18.049Z,53.11
2022-11-03T14:12:03.468Z,54.39
2022-11-03T14:14:30.616Z,53.61
2022-11-03T14:16:57.632Z,53.70
2022-11-03T14:19:31.750Z,54.13
2022-11-03T14:22:03.778Z,55.28
2022-11-03T14:24:30.696Z,54.89
2022-11-03T14:26:57.557Z,56.15
2022-11-03T14:29:24.641Z,56.12
2022-11-03T14:31:51.526Z,55.51
2022-11-03T14:34:18.575Z,57.22
2022-11-03T14:36:45.523Z,56.17
2022-11-03T14:39:12.629Z,56.81
2022-11-03T14:41:58.295Z,56.62
2022-11-03T14:44:25.253Z,58.00
2022-11-03T14:46:52.271Z,58.35
2022-11-03T14:49:19.424Z,58.54
2022-11-03T14:51:46.360Z,58.77
2022-11-03T14:54:13.382Z,58.51
2022-11-03T14:56:40.358Z,59.79
2022-11-03T14:59:07.358Z,61.04
2022-11-03T15:01:36.767Z,60.57
2022-11-03T15:04:03.994Z,61.33
2022-11-03T15:06:31.146Z,60.98
2022-11-03T15:08:58.346Z,61.40
2022-11-03T15:11:25.304Z,61.00
2022-11-03T15:13:52.868Z,61.26
2022-11-03T15:16:19.819Z,62.17
2022-11-03T15:18:46.962Z,62.03
2022-11-03T15:21:14.219Z,61.63
2022-11-03T15:26:28.384Z,62.14
2022-11-03T15:28:55.427Z,61.94
2022-11-03T15:31:23.842Z,63.37
2022-11-03T15:33:50.986Z,62.21
2022-11-03T15:36:17.948Z,62.58
2022-11-03T15:38:44.888Z,62.44
2022-11-03T15:41:18.177Z,61.87
2022-11-03T15:43:47.835Z,63.28
2022-11-03T15:46:18.358Z,63.11
2022-11-03T15:48:45.873Z,63.16
2022-11-03T15:51:13.085Z,62.67
2022-11-03T15:53:40.432Z,63.07
2022-11-03T15:56:07.794Z,63.12
2022-11-03T15:58:34.921Z,62.96
2022-11-03T16:01:03.380Z,62.95
2022-11-03T16:03:32.328Z,63.44
2022-11-03T16:05:59.962Z,63.28
2022-11-03T16:08:27.595Z,64.20
2022-11-03T16:10:58.146Z,63.35
2022-11-03T16:13:25.814Z,64.14
2022-11-03T16:15:56.204Z,63.83
2022-11-03T16:18:23.474Z,64.11
2022-11-03T16:20:50.368Z,64.74
2022-11-03T16:23:17.373Z,64.37
2022-11-03T16:25:44.234Z,64.82
2022-11-03T16:28:11.292Z,64.60
2022-11-03T16:30:38.906Z,65.44
2022-11-03T16:33:05.999Z,65.12
2022-11-03T16:35:34.240Z,64.97
2022-11-03T16:38:01.533Z,65.36
2022-11-03T16:40:28.421Z,65.58
2022-11-03T16:42:55.372Z,65.24
2022-11-03T16:45:25.196Z,65.20
2022-11-03T16:47:52.457Z,65.15
2022-11-03T16:50:20.140Z,65.18
2022-11-03T16:52:48.587Z,65.94
2022-11-03T16:55:17.394Z,65.17
2022-11-03T16:57:44.926Z,65.02
2022-11-03T17:00:16.122Z,65.09
2022-11-03T17:02:43.387Z,65.25
2022-11-03T17:05:11.406Z,66.10
2022-11-03T17:07:38.592Z,64.88
2022-11-03T17:10:07.224Z,64.96
2022-11-03T17:12:34.185Z,65.42
2022-11-03T17:15:01.227Z,64.89
2022-11-03T17:17:28.264Z,64.97
2022-11-03T17:19:55.418Z,65.16
2022-11-03T17:22:22.778Z,65.17
2022-11-03T17:24:49.735Z,65.33
2022-11-03T17:27:28.342Z,65.22
2022-11-03T17:30:00.574Z,64.81
2022-11-03T17:32:30.514Z,65.28
2022-11-03T21:07:43.375Z,67.58
2022-11-03T21:10:11.391Z,67.77
2022-11-03T21:12:38.783Z,67.70
2022-11-03T21:15:57.744Z,68.02
2022-11-03T21:19:03.052Z,67.99
2022-11-03T21:21:32.926Z,68.43
2022-11-03T21:24:01.378Z,68.60
2022-11-03T21:26:28.318Z,68.39
2022-11-03T21:28:55.223Z,69.11
2022-11-03T21:31:23.710Z,68.30
2022-11-03T21:33:50.746Z,68.19
2022-11-03T21:36:18.147Z,68.33
2022-11-03T21:38:45.230Z,68.08
2022-11-03T21:41:31.029Z,67.86
2022-11-03T21:44:16.289Z,67.78
2022-11-03T21:46:44.436Z,68.26
2022-11-03T21:49:30.114Z,67.69
2022-11-03T21:51:57.443Z,68.10
2022-11-03T21:54:24.498Z,67.11
2022-11-03T21:56:51.467Z,68.37
2022-11-03T21:59:18.472Z,68.23
2022-11-03T22:01:45.423Z,67.93
2022-11-03T22:04:12.461Z,68.66
2022-11-03T22:06:39.414Z,68.11
2022-11-03T22:09:06.336Z,67.96
2022-11-03T22:11:33.224Z,67.76
2022-11-03T22:14:01.645Z,67.19
2022-11-03T22:16:41.795Z,67.23
2022-11-03T22:19:30.998Z,67.39
2022-11-03T22:22:17.819Z,66.66
2022-11-03T22:25:03.626Z,66.79
2022-11-03T22:27:32.303Z,66.02
2022-11-03T22:30:18.991Z,65.71
2022-11-03T22:32:54.231Z,65.75
2022-11-03T22:35:40.877Z,66.35
2022-11-03T22:38:15.241Z,66.92
2022-11-03T22:41:01.941Z,66.01
2022-11-03T22:43:47.628Z,65.86
2022-11-03T22:46:16.076Z,67.59
2022-11-03T22:48:43.713Z,68.32
2022-11-03T22:51:13.491Z,69.08
2022-11-03T22:53:59.371Z,68.45
2022-11-03T22:56:28.493Z,69.00
2022-11-03T22:58:55.742Z,68.06
2022-11-03T23:01:26.919Z,67.64
2022-11-03T23:03:54.435Z,68.14
2022-11-03T23:06:27.319Z,69.00
2022-11-03T23:08:55.601Z,69.41
2022-11-03T23:11:25.604Z,68.54
2022-11-03T23:14:00.864Z,68.32
2022-11-03T23:16:35.042Z,68.45
2022-11-03T23:19:20.849Z,68.55
2022-11-03T23:21:50.448Z,68.73
2022-11-03T23:24:40.574Z,68.03
2022-11-03T23:27:11.538Z,67.91
2022-11-03T23:29:38.487Z,67.60
2022-11-03T23:32:05.798Z,68.31
2022-11-03T23:34:35.353Z,67.69
2022-11-03T23:37:03.327Z,67.30
2022-11-03T23:39:30.291Z,67.66
2022-11-03T23:41:57.261Z,67.28
2022-11-03T23:44:24.154Z,68.85
2022-11-03T23:47:09.728Z,68.55
2022-11-03T23:49:36.659Z,69.55
2022-11-03T23:52:03.935Z,68.71
2022-11-03T23:54:30.903Z,70.49
2022-11-03T23:57:16.584Z,69.75
